Plain, Wisconsin
Current Conditions -  °F | °C
As of 1:56 AM on Wednesday 26 Nov 2014 (Local Time) from KLNR Reporting Station
Clear Clear  
Wind Chill:   Ceiling: Unl
Heat Index:   Visibility: 9mi
Dew Point: -1°   Wind: 0mph
Humidity: 73%   Direction: NA
Pressure: 30.14"   Gusts: NA
Location:  43.28°N, 90.04°W
Report Text: KLNR 260756Z AUTO 00000KT 9SM CLR M14/M18 A3014 RMK AO2 SLP216 I1000 T11441183
Loading
Personal Weather Stations






























Interactive Weather Map New forecast layout! Learn more

10-Day Weather Forecast

Advertisements
Track Severe Weather on mobile